Time;durP1;ratioP1;P1;durP2;ratioP2;P2;SDS_P1;SDS_P2;PMS_P1;PMS_P2;Temp;Humidity;BMP_temperature;BMP_pressure;BME280_temperature;BME280_humidity;BME280_pressure;Samples;Min_cycle;Max_cycle;Signal;HPM_P1;HPM_P2
2024/04/13 00:00:17;;;;;;;7.50;4.00;;;;;;;10.84;68.39;101234.86;128150;1281;128785;-60
2024/04/13 00:03:41;;;;;;;8.40;4.40;;;;;;;10.81;68.67;101239.63;128238;1258;113519;-60
2024/04/13 00:06:46;;;;;;;11.20;4.90;;;;;;;10.79;68.96;101238.08;128323;1257;113307;-60
2024/04/13 00:09:54;;;;;;;9.40;5.20;;;;;;;10.77;69.17;101238.52;128295;1259;113182;-61
2024/04/13 00:13:01;;;;;;;10.00;5.40;;;;;;;10.74;69.31;101241.11;128300;1257;113577;-61
2024/04/13 00:16:08;;;;;;;9.60;4.70;;;;;;;10.72;69.24;101241.91;128163;1267;127811;-61
2024/04/13 00:19:15;;;;;;;7.60;5.40;;;;;;;10.69;69.92;101239.34;128419;1257;114079;-62
2024/04/13 00:22:21;;;;;;;9.50;5.40;;;;;;;10.66;69.95;101240.88;128272;1258;113237;-61
2024/04/13 00:25:29;;;;;;;7.70;5.20;;;;;;;10.62;70.01;101238.14;128307;1257;113465;-60
2024/04/13 00:28:39;;;;;;;9.20;6.00;;;;;;;10.59;70.27;101242.35;128102;1257;113346;-65
2024/04/13 00:31:46;;;;;;;8.70;4.80;;;;;;;10.56;70.26;101247.11;128068;1261;127845;-60
2024/04/13 00:34:50;;;;;;;9.40;7.10;;;;;;;10.53;70.48;101243.61;128396;1257;114497;-63
2024/04/13 00:37:58;;;;;;;13.70;7.50;;;;;;;10.52;70.43;101243.14;128436;1258;113448;-62
2024/04/13 00:41:05;;;;;;;12.40;5.70;;;;;;;10.49;70.77;101247.14;128277;1257;113187;-62
2024/04/13 00:44:10;;;;;;;12.30;6.50;;;;;;;10.48;70.66;101247.71;128376;1262;113667;-64
2024/04/13 00:47:14;;;;;;;12.00;6.50;;;;;;;10.47;70.74;101247.56;128339;1261;127873;-62
2024/04/13 00:50:20;;;;;;;12.20;7.00;;;;;;;10.48;71.13;101247.00;128136;1257;113279;-63
2024/04/13 00:53:26;;;;;;;15.30;7.20;;;;;;;10.49;71.55;101247.17;128233;1257;113232;-60
2024/04/13 00:56:36;;;;;;;12.70;7.90;;;;;;;10.50;71.59;101246.95;128270;1257;113227;-60
2024/04/13 00:59:42;;;;;;;11.50;7.70;;;;;;;10.53;71.91;101251.14;128276;1257;113489;-63
2024/04/13 01:02:52;;;;;;;15.40;7.20;;;;;;;10.55;71.79;101251.42;127910;1280;128149;-64
2024/04/13 01:06:01;;;;;;;11.30;7.40;;;;;;;10.57;71.81;101249.04;128335;1261;114630;-64
2024/04/13 01:09:07;;;;;;;12.80;7.50;;;;;;;10.59;72.05;101257.34;128284;1258;113177;-63
2024/04/13 01:12:11;;;;;;;12.00;6.80;;;;;;;10.62;72.07;101256.89;128279;1258;113470;-64
2024/04/13 01:15:19;;;;;;;11.50;7.10;;;;;;;10.65;72.25;101256.63;128625;1261;113211;-64
2024/04/13 01:18:31;;;;;;;10.90;7.00;;;;;;;10.67;72.17;101256.75;128328;1281;127837;-61
2024/04/13 01:21:35;;;;;;;12.10;7.90;;;;;;;10.67;72.09;101256.55;128424;1261;114088;-63
2024/04/13 01:24:40;;;;;;;11.00;7.00;;;;;;;10.69;72.34;101257.01;128524;1259;113182;-61
2024/04/13 01:27:47;;;;;;;10.90;6.40;;;;;;;10.71;72.38;101256.77;128203;1257;113385;-64
2024/04/13 01:30:55;;;;;;;10.30;7.00;;;;;;;10.72;72.20;101258.70;128520;1257;113359;-63
2024/04/13 01:33:59;;;;;;;11.30;5.70;;;;;;;10.73;72.28;101257.60;128279;1280;127834;-63
2024/04/13 01:37:04;;;;;;;10.70;5.80;;;;;;;10.75;72.55;101255.56;128310;1257;113543;-61
2024/04/13 01:40:10;;;;;;;11.90;6.30;;;;;;;10.77;72.37;101257.80;128467;1257;113479;-61
2024/04/13 01:43:18;;;;;;;10.50;6.20;;;;;;;10.78;72.63;101253.11;128494;1258;114080;-61
2024/04/13 01:46:30;;;;;;;12.70;6.20;;;;;;;10.79;72.42;101251.28;128236;1264;113336;-61
2024/04/13 01:49:37;;;;;;;10.70;5.90;;;;;;;10.81;72.63;101251.41;128255;1264;128775;-63
2024/04/13 01:52:43;;;;;;;8.90;5.20;;;;;;;10.81;72.42;101251.06;128504;1260;113519;-61
2024/04/13 01:55:50;;;;;;;9.80;5.20;;;;;;;10.82;72.56;101251.75;128115;1259;113591;-62
2024/04/13 01:58:55;;;;;;;7.90;5.00;;;;;;;10.82;72.53;101253.20;128267;1259;113283;-63
2024/04/13 02:01:59;;;;;;;8.00;4.90;;;;;;;10.82;72.75;101255.52;128027;1263;113476;-60
2024/04/13 02:05:03;;;;;;;;;;;;;;;10.82;72.81;101261.75;128040;1259;129173;-61
2024/04/13 02:08:13;;;;;;;10.10;5.70;;;;;;;10.83;73.22;101268.52;128322;1261;114504;-61
2024/04/13 02:11:17;;;;;;;9.50;5.60;;;;;;;10.84;73.42;101262.38;126638;1258;2310444;-64
2024/04/13 02:14:25;;;;;;;6.60;5.20;;;;;;;10.86;73.61;101264.98;128188;1258;113469;-64
2024/04/13 02:17:37;;;;;;;9.10;5.30;;;;;;;10.90;73.55;101262.01;127976;1261;113606;-62
2024/04/13 02:20:43;;;;;;;7.70;5.70;;;;;;;10.92;73.40;101261.73;128387;1282;129213;-64
2024/04/13 02:23:47;;;;;;;8.00;5.00;;;;;;;10.94;73.57;101262.03;128352;1260;114737;-64
2024/04/13 02:26:51;;;;;;;10.40;5.20;;;;;;;10.95;73.61;101268.61;128358;1260;113149;-63
2024/04/13 02:30:04;;;;;;;8.20;5.10;;;;;;;10.94;73.30;101262.91;128199;1259;113209;-63
2024/04/13 02:33:14;;;;;;;9.10;5.50;;;;;;;10.92;73.38;101262.09;128292;1262;113561;-62
2024/04/13 02:36:20;;;;;;;7.30;4.70;;;;;;;10.88;73.30;101257.23;127895;1264;127797;-64
2024/04/13 02:39:25;;;;;;;8.80;4.90;;;;;;;10.84;73.36;101262.38;128024;1263;114562;-64
2024/04/13 02:42:30;;;;;;;8.40;5.30;;;;;;;10.79;73.32;101267.02;128302;1260;113197;-63
2024/04/13 02:45:35;;;;;;;8.50;5.00;;;;;;;10.74;73.47;101263.82;128052;1259;114677;-61
2024/04/13 02:48:42;;;;;;;7.70;5.30;;;;;;;10.68;73.39;101263.84;128274;1258;113238;-65
2024/04/13 02:51:50;;;;;;;;;;;;;;;10.62;73.32;101260.83;128368;1259;127606;-64
2024/04/13 02:54:57;;;;;;;7.90;4.90;;;;;;;10.55;73.41;101255.89;128519;1258;114489;-61
2024/04/13 02:58:03;;;;;;;9.00;4.60;;;;;;;10.48;73.44;101250.20;128739;1259;113235;-65
2024/04/13 03:01:07;;;;;;;6.30;4.20;;;;;;;10.44;73.31;101246.25;128567;1259;113347;-64
2024/04/13 03:04:12;;;;;;;10.00;4.90;;;;;;;10.39;73.57;101243.20;128820;1259;113132;-61
2024/04/13 03:07:20;;;;;;;9.40;5.50;;;;;;;10.34;73.54;101251.55;128329;1281;127958;-63
2024/04/13 03:10:24;;;;;;;;;;;;;;;10.29;73.49;101246.34;128308;1264;114540;-63
2024/04/13 03:13:29;;;;;;;8.50;4.90;;;;;;;10.23;73.67;101242.80;128293;1259;113193;-62
2024/04/13 03:16:35;;;;;;;8.00;5.30;;;;;;;10.19;73.83;101251.69;128456;1259;113355;-62
2024/04/13 03:19:40;;;;;;;9.20;4.70;;;;;;;10.15;73.87;101256.79;128272;1258;113324;-63
2024/04/13 03:22:45;;;;;;;8.20;4.70;;;;;;;10.13;74.02;101261.51;128064;1263;127817;-62
2024/04/13 03:25:55;;;;;;;8.60;5.60;;;;;;;10.12;74.11;101266.02;127932;1264;114049;-60
2024/04/13 03:29:00;;;;;;;6.60;4.30;;;;;;;10.10;74.26;101263.39;128310;1264;115402;-61
2024/04/13 03:32:07;;;;;;;8.60;4.90;;;;;;;10.10;74.43;101262.48;128332;1259;113176;-61
2024/04/13 03:35:13;;;;;;;7.20;4.40;;;;;;;10.10;74.63;101259.45;128351;1259;115325;-60
2024/04/13 03:38:18;;;;;;;6.70;4.40;;;;;;;10.10;74.59;101258.95;128214;1281;128035;-60
2024/04/13 03:41:30;;;;;;;7.50;4.50;;;;;;;10.10;74.61;101255.20;128152;1258;113163;-59
2024/04/13 03:44:40;;;;;;;9.80;4.90;;;;;;;10.10;74.86;101253.05;128192;1258;113306;-63
2024/04/13 03:47:45;;;;;;;7.00;5.20;;;;;;;10.11;74.93;101255.50;128173;1257;114651;-63
2024/04/13 03:50:52;;;;;;;9.80;4.70;;;;;;;10.12;75.25;101255.13;128314;1261;113613;-60
2024/04/13 03:54:00;;;;;;;8.00;4.20;;;;;;;10.14;75.34;101256.11;128230;1261;127903;-62
2024/04/13 03:57:09;;;;;;;8.90;5.00;;;;;;;10.17;75.42;101256.55;128290;1261;114531;-58
2024/04/13 04:00:17;;;;;;;7.20;4.30;;;;;;;10.19;75.44;101258.63;128407;1258;113520;-63
2024/04/13 04:03:25;;;;;;;6.40;4.90;;;;;;;10.22;75.62;101258.01;128401;1259;113855;-62
2024/04/13 04:06:38;;;;;;;9.00;4.30;;;;;;;10.25;75.88;101251.48;128172;1259;113310;-59
2024/04/13 04:09:41;;;;;;;;;;;;;;;10.29;76.06;101255.11;128349;1257;128741;-59
2024/04/13 04:12:46;;;;;;;8.30;4.20;;;;;;;10.31;76.06;101252.91;128164;1264;114647;-59
2024/04/13 04:15:54;;;;;;;6.80;4.20;;;;;;;10.32;75.93;101251.98;128130;1257;113326;-59
2024/04/13 04:18:57;;;;;;;;;;;;;;;10.35;75.74;101255.63;128300;1259;113401;-58
2024/04/13 04:22:03;;;;;;;6.60;4.60;;;;;;;10.36;76.30;101254.33;129267;1257;113262;-61
2024/04/13 04:25:09;;;;;;;7.30;3.70;;;;;;;10.38;76.15;101255.01;128383;1275;128916;-59
2024/04/13 04:28:16;;;;;;;8.70;5.50;;;;;;;10.41;76.03;101250.83;128358;1261;114769;-59
2024/04/13 04:31:22;;;;;;;6.90;3.50;;;;;;;10.45;76.32;101249.23;128378;1259;113211;-59
2024/04/13 04:34:27;;;;;;;6.60;3.60;;;;;;;10.48;76.27;101247.71;128269;1262;114063;-59
2024/04/13 04:37:38;;;;;;;7.30;4.40;;;;;;;10.52;76.41;101249.20;128281;1257;113210;-59
2024/04/13 04:40:50;;;;;;;6.90;4.60;;;;;;;10.56;76.38;101250.65;128480;1259;128964;-59
2024/04/13 04:43:59;;;;;;;7.50;3.80;;;;;;;10.61;76.50;101247.82;128593;1261;114079;-59
2024/04/13 04:47:04;;;;;;;7.50;4.30;;;;;;;10.66;76.65;101246.39;128360;1257;113186;-60
2024/04/13 04:50:09;;;;;;;5.90;4.30;;;;;;;10.72;76.51;101243.88;128179;1261;113365;-59
2024/04/13 04:53:19;;;;;;;6.00;3.90;;;;;;;10.79;76.65;101244.33;128323;1259;114686;-59
2024/04/13 04:56:25;;;;;;;5.40;3.90;;;;;;;10.89;76.76;101239.89;128048;1267;128210;-60
2024/04/13 04:59:32;;;;;;;5.20;3.50;;;;;;;11.00;77.11;101237.87;128114;1261;114263;-60
2024/04/13 05:02:38;;;;;;;4.70;3.40;;;;;;;11.13;77.07;101238.83;128097;1258;113281;-60
2024/04/13 05:05:43;;;;;;;7.60;3.90;;;;;;;11.27;77.47;101244.75;128173;1257;113220;-60
2024/04/13 05:08:51;;;;;;;7.30;4.50;;;;;;;11.40;77.62;101246.24;128543;1259;113231;-60
2024/04/13 05:11:56;;;;;;;6.50;4.40;;;;;;;11.53;77.65;101250.39;128535;1280;128728;-60
2024/04/13 05:15:01;;;;;;;6.90;4.00;;;;;;;11.67;77.28;101245.57;128357;1261;114043;-60
2024/04/13 05:18:05;;;;;;;6.30;4.20;;;;;;;11.85;77.49;101246.12;128478;1259;113245;-59
2024/04/13 05:21:11;;;;;;;5.80;3.60;;;;;;;12.13;78.24;101249.16;128171;1259;114073;-59
2024/04/13 05:24:17;;;;;;;6.60;4.00;;;;;;;12.46;78.34;101248.88;128285;1259;113176;-59
2024/04/13 05:27:24;;;;;;;5.90;3.50;;;;;;;12.77;78.31;101250.59;128058;1267;128059;-59
2024/04/13 05:30:35;;;;;;;4.80;2.90;;;;;;;13.05;78.65;101251.73;128286;1261;114489;-58
2024/04/13 05:33:40;;;;;;;5.50;3.00;;;;;;;13.31;78.45;101251.62;128028;1259;113389;-59
2024/04/13 05:36:49;;;;;;;3.90;2.60;;;;;;;13.56;78.53;101249.41;128306;1278;114748;-60
2024/04/13 05:39:53;;;;;;;7.70;2.50;;;;;;;13.75;78.23;101242.61;128337;1259;113257;-60
2024/04/13 05:42:58;;;;;;;5.20;2.60;;;;;;;13.98;78.18;101246.38;128282;1281;128939;-60
2024/04/13 05:46:07;;;;;;;6.60;3.10;;;;;;;14.20;77.97;101241.70;128315;1261;114483;-59
2024/04/13 05:49:12;;;;;;;3.90;2.60;;;;;;;14.46;77.95;101247.44;128328;1257;113241;-60
2024/04/13 05:52:20;;;;;;;3.20;2.30;;;;;;;14.77;77.91;101250.19;128355;1257;113151;-59
2024/04/13 05:55:25;;;;;;;4.90;2.30;;;;;;;15.07;77.49;101248.60;128300;1259;113492;-61
2024/04/13 05:58:33;;;;;;;3.50;2.30;;;;;;;15.29;76.95;101246.73;128070;1281;127854;-60
2024/04/13 06:01:37;;;;;;;4.20;2.90;;;;;;;15.47;76.65;101249.02;128297;1261;114485;-60
2024/04/13 06:04:42;;;;;;;4.30;2.60;;;;;;;15.66;76.25;101243.64;128437;1258;113894;-60
2024/04/13 06:07:50;;;;;;;5.10;2.90;;;;;;;15.90;75.97;101243.59;128073;1258;113335;-60
2024/04/13 06:10:57;;;;;;;5.70;2.60;;;;;;;16.21;75.75;101243.99;128280;1259;113209;-59
2024/04/13 06:14:02;;;;;;;4.20;2.80;;;;;;;16.54;75.15;101245.29;128319;1281;129106;-60
2024/04/13 06:17:06;;;;;;;6.20;2.60;;;;;;;16.93;74.81;101241.73;128663;1261;113284;-60
2024/04/13 06:20:14;;;;;;;3.20;2.20;;;;;;;17.32;74.14;101241.84;128696;1257;113161;-59
2024/04/13 06:23:18;;;;;;;6.00;2.30;;;;;;;17.70;73.44;101236.76;128391;1281;114814;-63
2024/04/13 06:26:23;;;;;;;6.50;2.70;;;;;;;18.08;73.01;101237.71;129316;1258;113451;-58
2024/04/13 06:29:27;;;;;;;4.00;1.80;;;;;;;18.58;72.57;101235.88;128193;1281;127839;-59
2024/04/13 06:32:32;;;;;;;3.50;2.00;;;;;;;19.07;71.89;101233.80;128145;1257;114690;-58
2024/04/13 06:35:37;;;;;;;3.80;1.80;;;;;;;19.41;71.11;101228.84;128557;1259;113178;-59
2024/04/13 06:38:41;;;;;;;3.80;2.00;;;;;;;19.75;70.39;101229.88;128318;1258;113242;-60
2024/04/13 06:41:49;;;;;;;5.40;2.10;;;;;;;20.03;69.64;101227.65;128222;1257;113242;-60
2024/04/13 06:44:54;;;;;;;2.90;1.80;;;;;;;20.36;68.85;101232.92;128176;1281;126981;-59
2024/04/13 06:48:00;;;;;;;3.30;2.30;;;;;;;20.58;68.12;101235.25;128289;1263;114731;-61
2024/04/13 06:51:07;;;;;;;3.50;1.90;;;;;;;20.80;67.07;101232.88;128286;1259;113515;-60
2024/04/13 06:54:15;;;;;;;3.00;2.00;;;;;;;21.00;66.36;101233.48;128111;1259;113474;-60
2024/04/13 06:57:19;;;;;;;3.50;1.90;;;;;;;21.18;65.72;101235.54;128080;1260;113312;-60
2024/04/13 07:00:25;;;;;;;;;;;;;;;21.42;65.32;101240.05;128152;1267;127784;-62
2024/04/13 07:03:31;;;;;;;2.70;2.40;;;;;;;21.59;64.31;101236.84;128203;1263;114540;-61
2024/04/13 07:06:39;;;;;;;28.80;18.20;;;;;;;21.69;63.76;101233.34;128383;1259;113285;-64
2024/04/13 07:09:46;;;;;;;8.20;5.90;;;;;;;21.80;63.13;101230.45;128261;1263;113332;-63
2024/04/13 07:12:52;;;;;;;11.40;9.90;;;;;;;21.80;62.53;101232.96;128296;1259;113203;-61
2024/04/13 07:15:58;;;;;;;7.40;5.70;;;;;;;21.90;61.82;101227.95;128026;1266;127838;-61
2024/04/13 07:19:09;;;;;;;10.50;9.30;;;;;;;22.02;61.54;101230.40;128404;1263;114261;-60
2024/04/13 07:22:15;;;;;;;4.30;2.70;;;;;;;22.22;61.36;101224.41;128206;1259;113602;-60
2024/04/13 07:25:21;;;;;;;4.10;2.70;;;;;;;22.41;60.63;101225.52;128228;1263;113395;-63
2024/04/13 07:28:27;;;;;;;3.50;1.90;;;;;;;22.63;59.93;101219.66;128227;1263;114796;-62
2024/04/13 07:31:34;;;;;;;3.20;2.30;;;;;;;22.87;59.48;101222.95;128078;1259;127654;-59
2024/04/13 07:34:40;;;;;;;4.10;2.70;;;;;;;23.18;58.73;101220.79;128246;1265;114733;-61
2024/04/13 07:37:47;;;;;;;3.30;2.20;;;;;;;23.34;57.97;101215.77;128420;1264;113256;-60
2024/04/13 07:40:52;;;;;;;4.30;2.40;;;;;;;23.58;57.58;101210.50;128415;1263;113198;-59
2024/04/13 07:43:57;;;;;;;3.60;1.90;;;;;;;23.93;57.10;101205.55;128292;1259;113208;-59
2024/04/13 07:47:06;;;;;;;3.70;2.20;;;;;;;24.25;56.30;101201.19;128314;1259;127633;-61
2024/04/13 07:50:12;;;;;;;3.60;2.20;;;;;;;24.45;55.33;101202.70;128048;1257;115353;-61
2024/04/13 07:53:17;;;;;;;3.50;1.80;;;;;;;24.60;54.68;101209.21;128263;1261;113773;-60
2024/04/13 07:56:22;;;;;;;5.00;2.30;;;;;;;24.61;53.75;101213.11;128537;1261;114734;-59
2024/04/13 07:59:27;;;;;;;3.60;2.20;;;;;;;24.70;53.21;101209.35;128429;1262;113220;-59
2024/04/13 08:02:32;;;;;;;5.20;2.00;;;;;;;24.89;53.07;101218.73;128355;1259;119335;-60
2024/04/13 08:05:37;;;;;;;6.20;2.40;;;;;;;24.92;52.25;101214.45;127871;1267;115448;-59
2024/04/13 08:08:46;;;;;;;4.40;2.10;;;;;;;24.99;51.99;101209.16;128386;1261;113506;-60
2024/04/13 08:11:54;;;;;;;3.50;2.00;;;;;;;25.11;51.56;101212.42;128373;1261;114708;-60
2024/04/13 08:14:59;;;;;;;3.10;2.00;;;;;;;25.12;50.93;101211.44;128374;1262;114734;-59
2024/04/13 08:18:04;;;;;;;3.10;1.80;;;;;;;25.15;50.47;101212.41;128324;1261;119226;-59
2024/04/13 08:21:08;;;;;;;3.00;1.60;;;;;;;25.24;50.37;101208.45;128331;1262;114742;-60
2024/04/13 08:24:17;;;;;;;4.30;1.80;;;;;;;25.41;49.91;101211.69;128346;1261;114289;-61
2024/04/13 08:27:21;;;;;;;5.20;1.80;;;;;;;25.53;49.64;101215.76;128244;1264;114807;-59
2024/04/13 08:30:26;;;;;;;;;;;;;;;25.60;49.27;101218.83;128376;1262;114669;-59
2024/04/13 08:33:32;;;;;;;3.60;2.50;;;;;;;25.64;48.95;101219.02;128322;1262;121515;-60
2024/04/13 08:36:38;;;;;;;4.90;2.80;;;;;;;25.74;48.34;101218.00;128164;1259;113287;-59
2024/04/13 08:39:44;;;;;;;5.10;1.80;;;;;;;25.91;47.69;101213.91;128313;1262;114550;-60
2024/04/13 08:42:55;;;;;;;6.10;3.60;;;;;;;26.02;47.06;101211.35;128273;1261;114187;-60
2024/04/13 08:46:09;;;;;;;2.70;1.70;;;;;;;26.10;46.41;101215.00;128403;1261;114086;-60
2024/04/13 08:49:14;;;;;;;4.40;1.30;;;;;;;26.07;45.91;101210.86;128163;1257;119162;-60
2024/04/13 08:52:21;;;;;;;3.30;1.60;;;;;;;25.91;44.95;101205.48;128287;1262;114708;-60
2024/04/13 08:55:32;;;;;;;20.10;1.70;;;;;;;25.75;44.42;101211.46;128393;1257;113223;-60
2024/04/13 08:58:41;;;;;;;5.40;1.30;;;;;;;25.58;44.06;101208.07;128391;1261;114829;-59
2024/04/13 09:01:51;;;;;;;3.00;1.20;;;;;;;25.31;43.35;101202.02;128311;1261;114718;-60
2024/04/13 09:04:57;;;;;;;5.70;1.10;;;;;;;25.08;43.39;101197.36;128219;1262;120132;-60
2024/04/13 09:08:03;;;;;;;3.40;1.40;;;;;;;24.94;43.17;101187.37;128184;1257;114874;-61
2024/04/13 09:11:12;;;;;;;2.50;1.00;;;;;;;24.87;43.12;101192.79;128307;1261;113823;-60
2024/04/13 09:14:18;;;;;;;2.40;0.80;;;;;;;24.84;42.78;101197.05;128122;1266;114526;-59
2024/04/13 09:17:24;;;;;;;8.50;1.10;;;;;;;24.84;42.63;101191.43;128174;1266;115444;-59
2024/04/13 09:20:32;;;;;;;2.00;0.90;;;;;;;24.93;42.54;101191.12;127942;1267;119357;-60
2024/04/13 09:23:38;;;;;;;3.40;1.20;;;;;;;25.03;42.59;101194.33;128293;1262;115285;-60
2024/04/13 09:26:46;;;;;;;6.70;1.10;;;;;;;25.12;42.56;101188.61;128090;1257;113199;-60
2024/04/13 09:30:17;;;;;;;3.80;0.80;;;;;;;25.18;42.35;101185.23;128286;1262;114730;-60
2024/04/13 09:33:23;;;;;;;4.90;1.10;;;;;;;25.25;42.30;101184.02;128338;1262;114715;-59
2024/04/13 09:36:31;;;;;;;3.10;0.80;;;;;;;25.26;41.84;101179.33;128045;1264;119518;-60
2024/04/13 09:39:35;;;;;;;2.10;0.90;;;;;;;25.20;41.81;101174.63;128058;1262;115022;-59
2024/04/13 09:42:39;;;;;;;3.20;0.90;;;;;;;25.13;41.67;101173.14;128151;1263;114447;-59
2024/04/13 09:45:45;;;;;;;3.30;0.90;;;;;;;25.06;41.76;101170.68;128376;1261;114754;-60
2024/04/13 09:48:54;;;;;;;2.00;1.00;;;;;;;25.00;42.08;101165.91;128122;1264;114804;-60
2024/04/13 09:51:59;;;;;;;2.10;0.90;;;;;;;24.98;42.14;101168.11;128142;1262;119310;-59
2024/04/13 09:55:02;;;;;;;1.60;0.70;;;;;;;24.98;42.21;101175.45;128261;1272;115309;-60
2024/04/13 09:58:10;;;;;;;2.10;0.90;;;;;;;24.96;42.26;101173.43;128320;1261;114493;-60
2024/04/13 10:01:19;;;;;;;2.10;0.80;;;;;;;24.91;42.02;101156.96;128312;1259;114737;-60
2024/04/13 10:04:24;;;;;;;2.30;0.90;;;;;;;24.84;42.07;101153.61;128223;1266;114752;-59
2024/04/13 10:07:30;;;;;;;1.80;1.00;;;;;;;24.82;42.15;101152.31;128339;1263;119396;-59
2024/04/13 10:10:40;;;;;;;1.90;0.90;;;;;;;24.77;42.15;101151.73;128158;1265;114813;-59
2024/04/13 10:13:46;;;;;;;3.20;1.00;;;;;;;24.82;42.66;101150.91;127978;1266;114400;-60
2024/04/13 10:16:51;;;;;;;2.80;0.90;;;;;;;24.90;42.67;101145.58;128119;1265;114076;-60
2024/04/13 10:20:02;;;;;;;4.00;1.30;;;;;;;24.89;42.75;101144.88;127852;1270;114708;-60
2024/04/13 10:23:13;;;;;;;3.00;1.20;;;;;;;24.88;42.93;101146.82;128177;1265;120175;-59
2024/04/13 10:26:30;;;;;;;3.40;1.20;;;;;;;24.87;42.89;101140.48;128038;1272;113254;-59
2024/04/13 10:29:40;;;;;;;4.80;1.30;;;;;;;24.81;42.97;101131.38;128284;1274;114864;-60
2024/04/13 10:32:47;;;;;;;3.60;1.10;;;;;;;24.82;43.11;101115.45;128336;1263;113604;-59
2024/04/13 10:35:57;;;;;;;4.80;1.50;;;;;;;24.82;42.68;101113.98;128183;1263;114554;-61
2024/04/13 10:39:09;;;;;;;2.20;1.30;;;;;;;24.79;42.94;101117.98;128283;1261;120223;-61
2024/04/13 10:42:20;;;;;;;2.40;1.40;;;;;;;24.75;42.94;101120.14;128295;1263;114770;-59
2024/04/13 10:45:27;;;;;;;3.80;1.60;;;;;;;24.67;42.72;101114.31;128354;1261;113323;-60
2024/04/13 10:48:35;;;;;;;2.20;1.40;;;;;;;24.56;42.84;101106.55;128162;1267;114079;-60
2024/04/13 10:51:40;;;;;;;3.60;1.80;;;;;;;24.50;43.00;101096.76;128051;1259;113339;-60
2024/04/13 10:54:56;;;;;;;6.90;1.60;;;;;;;24.50;42.84;101092.92;128179;1264;126808;-60
2024/04/13 10:58:01;;;;;;;3.00;1.20;;;;;;;24.54;43.03;101094.30;127990;1268;114857;-61
2024/04/13 11:01:06;;;;;;;4.70;1.60;;;;;;;24.67;43.14;101095.12;128063;1267;113877;-60
2024/04/13 11:04:13;;;;;;;3.10;1.20;;;;;;;24.83;42.82;101098.16;128243;1264;114654;-60
2024/04/13 11:07:21;;;;;;;2.80;1.60;;;;;;;24.97;42.54;101095.30;128368;1263;115204;-60
2024/04/13 11:10:26;;;;;;;4.00;1.80;;;;;;;25.07;42.34;101095.77;128186;1265;119207;-61
2024/04/13 11:13:35;;;;;;;2.80;1.60;;;;;;;25.15;42.32;101095.70;128160;1272;114708;-61
2024/04/13 11:16:42;;;;;;;2.20;1.30;;;;;;;25.20;42.10;101087.26;128403;1263;113530;-61
2024/04/13 11:19:52;;;;;;;4.70;1.50;;;;;;;25.28;42.48;101094.14;128372;1263;114472;-59
2024/04/13 11:23:00;;;;;;;2.30;1.40;;;;;;;25.39;42.44;101091.08;128007;1259;114649;-60
2024/04/13 11:26:11;;;;;;;4.80;1.80;;;;;;;25.48;42.17;101096.38;128086;1259;120371;-58
2024/04/13 11:29:24;;;;;;;4.30;2.00;;;;;;;25.53;41.98;101086.59;128203;1272;114846;-59
2024/04/13 11:32:30;;;;;;;3.50;1.60;;;;;;;25.60;42.08;101093.30;128504;1263;114454;-60
2024/04/13 11:35:35;;;;;;;3.40;1.60;;;;;;;25.72;42.12;101090.90;128109;1258;114635;-59
2024/04/13 11:38:38;;;;;;;5.10;1.60;;;;;;;25.84;42.24;101083.20;128305;1263;114715;-58
2024/04/13 11:41:48;;;;;;;3.60;1.70;;;;;;;25.88;42.05;101084.05;128415;1263;119969;-59
2024/04/13 11:44:53;;;;;;;4.30;1.30;;;;;;;25.85;41.53;101079.64;127977;1261;115412;-59
2024/04/13 11:47:58;;;;;;;4.20;1.60;;;;;;;25.77;41.36;101070.23;128292;1264;114188;-59
2024/04/13 11:51:03;;;;;;;4.80;1.50;;;;;;;25.74;41.31;101069.41;128245;1264;114718;-59
2024/04/13 11:54:10;;;;;;;2.10;1.50;;;;;;;25.73;41.13;101060.23;128135;1264;114709;-60
2024/04/13 11:57:19;;;;;;;4.70;1.60;;;;;;;25.72;41.00;101058.69;128003;1275;120894;-60
2024/04/13 12:00:25;;;;;;;2.40;1.70;;;;;;;25.69;41.22;101056.40;128321;1263;115326;-59
2024/04/13 12:03:32;;;;;;;1.90;1.50;;;;;;;25.69;41.34;101052.20;128435;1263;114068;-61
2024/04/13 12:06:40;;;;;;;4.10;1.30;;;;;;;25.72;41.50;101047.89;128471;1264;114619;-61
2024/04/13 12:09:44;;;;;;;6.70;2.10;;;;;;;25.77;41.18;101040.21;128214;1260;114737;-61
2024/04/13 12:12:52;;;;;;;4.00;1.80;;;;;;;25.82;41.21;101031.26;128512;1267;119162;-59
2024/04/13 12:15:57;;;;;;;3.10;1.40;;;;;;;25.87;41.33;101020.20;128030;1260;115418;-59
2024/04/13 12:19:06;;;;;;;4.40;1.60;;;;;;;25.93;41.26;101017.72;128574;1264;114048;-60
2024/04/13 12:22:13;;;;;;;2.80;1.50;;;;;;;25.97;41.05;101020.61;128212;1264;114457;-60
2024/04/13 12:25:19;;;;;;;2.80;1.70;;;;;;;26.03;41.04;101014.13;128285;1272;114804;-61
2024/04/13 12:28:28;;;;;;;3.40;1.90;;;;;;;26.12;40.91;101010.08;128058;1263;119385;-59
2024/04/13 12:31:35;;;;;;;3.30;1.70;;;;;;;26.15;40.73;101007.98;128107;1272;114776;-59
2024/04/13 12:34:40;;;;;;;6.40;1.90;;;;;;;26.15;40.41;101007.99;128299;1263;113425;-58
2024/04/13 12:37:45;;;;;;;6.10;2.00;;;;;;;26.16;40.27;101012.58;128142;1267;114704;-60
2024/04/13 12:40:54;;;;;;;3.70;1.80;;;;;;;26.18;40.28;101001.56;128096;1266;114542;-60
2024/04/13 12:44:00;;;;;;;4.00;1.70;;;;;;;26.18;40.15;100994.66;128355;1264;119419;-60
2024/04/13 12:47:05;;;;;;;3.70;2.10;;;;;;;26.12;39.91;100998.57;128297;1257;114703;-60
2024/04/13 12:50:09;;;;;;;2.70;1.70;;;;;;;26.07;40.10;100995.80;128293;1264;113269;-60
2024/04/13 12:53:14;;;;;;;2.50;1.70;;;;;;;26.03;40.13;101001.52;128311;1257;114457;-60
2024/04/13 12:56:20;;;;;;;1.90;1.40;;;;;;;25.96;39.69;100996.54;128238;1263;114419;-59
2024/04/13 12:59:27;;;;;;;3.00;1.60;;;;;;;25.83;39.73;100992.16;128069;1257;119234;-60
2024/04/13 13:02:31;;;;;;;15.90;10.00;;;;;;;25.69;39.53;100989.24;128313;1257;114725;-59
2024/04/13 13:05:41;;;;;;;3.00;2.00;;;;;;;25.61;39.74;100987.86;128368;1258;114010;-59
2024/04/13 13:08:45;;;;;;;3.90;2.10;;;;;;;25.52;39.46;100986.41;128350;1262;113605;-60
2024/04/13 13:11:50;;;;;;;;;;;;;;;25.43;39.41;100983.61;128249;1257;115434;-59
2024/04/13 13:14:59;;;;;;;4.00;1.80;;;;;;;25.37;39.77;100979.72;128086;1267;119050;-59
2024/04/13 13:18:08;;;;;;;5.50;3.00;;;;;;;25.30;39.74;100978.48;128026;1257;115485;-59
2024/04/13 13:21:15;;;;;;;3.20;1.70;;;;;;;25.29;39.96;100977.52;128086;1266;113237;-59
2024/04/13 13:24:21;;;;;;;4.00;1.90;;;;;;;25.28;39.94;100975.25;128290;1258;115392;-58
2024/04/13 13:27:25;;;;;;;4.30;1.40;;;;;;;25.29;39.78;100971.87;128293;1259;114726;-60
2024/04/13 13:30:40;;;;;;;4.40;3.20;;;;;;;25.28;39.87;100967.74;128227;1261;119281;-59
2024/04/13 13:33:46;;;;;;;4.90;2.00;;;;;;;25.27;39.96;100961.11;128104;1258;115009;-60
2024/04/13 13:36:55;;;;;;;5.50;1.80;;;;;;;25.27;39.96;100959.61;128262;1260;114742;-60
2024/04/13 13:40:01;;;;;;;5.50;1.60;;;;;;;25.26;39.93;100958.64;128537;1263;114085;-59
2024/04/13 13:43:06;;;;;;;4.50;1.30;;;;;;;25.25;40.08;100960.02;128302;1259;114724;-59
2024/04/13 13:46:11;;;;;;;4.40;2.10;;;;;;;25.18;40.05;100958.33;128123;1258;119143;-59
2024/04/13 13:49:21;;;;;;;7.50;3.50;;;;;;;25.11;40.25;100952.15;127874;1257;115465;-61
2024/04/13 13:52:30;;;;;;;7.40;2.90;;;;;;;25.08;40.38;100946.80;128504;1257;114141;-59
2024/04/13 13:55:37;;;;;;;5.70;1.60;;;;;;;25.05;40.70;100944.16;128495;1259;114578;-60
2024/04/13 13:58:42;;;;;;;12.70;2.00;;;;;;;24.98;40.58;100939.68;128535;1262;114760;-59
2024/04/13 14:01:56;;;;;;;7.20;2.20;;;;;;;24.90;40.64;100926.49;128106;1258;121260;-59
2024/04/13 14:05:02;;;;;;;4.20;2.00;;;;;;;24.82;40.58;100928.17;128457;1263;114685;-60
2024/04/13 14:08:14;;;;;;;5.20;1.70;;;;;;;24.77;40.87;100922.83;127961;1263;113997;-60